Aviation Digital Data Service (ADDS)

Output produced by METARs form (1750 UTC 31 October 2014)
found at http://aviationweather.gov/adds/metars/
 
KJAX 311722Z 3118/0118 33009KT P6SM SCT040 
     FM010000 28005KT P6SM SKC 
     FM010900 29012G22KT P6SM SCT035 
     FM011400 30022G32KT P6SM FEW050